sensor_id;sensor_type;location;lat;lon;timestamp;P1;durP1;ratioP1;P2;durP2;ratioP2
44822;SDS011;51097;51.984;5.650;2023-05-07T00:00:17;13.15;;;11.85;;
44822;SDS011;51097;51.984;5.650;2023-05-07T00:02:44;13.93;;;12.10;;
44822;SDS011;51097;51.984;5.650;2023-05-07T00:05:10;13.05;;;11.75;;
44822;SDS011;51097;51.984;5.650;2023-05-07T00:07:36;13.38;;;12.02;;
44822;SDS011;51097;51.984;5.650;2023-05-07T00:10:02;12.52;;;11.30;;
44822;SDS011;51097;51.984;5.650;2023-05-07T00:12:28;13.90;;;12.60;;
44822;SDS011;51097;51.984;5.650;2023-05-07T00:14:56;15.95;;;12.68;;
44822;SDS011;51097;51.984;5.650;2023-05-07T00:17:22;15.25;;;11.80;;
44822;SDS011;51097;51.984;5.650;2023-05-07T00:19:48;13.38;;;11.93;;
44822;SDS011;51097;51.984;5.650;2023-05-07T00:22:13;17.52;;;13.90;;
44822;SDS011;51097;51.984;5.650;2023-05-07T00:24:39;14.18;;;12.82;;
44822;SDS011;51097;51.984;5.650;2023-05-07T00:27:05;17.02;;;12.80;;
44822;SDS011;51097;51.984;5.650;2023-05-07T00:29:30;14.13;;;12.82;;
44822;SDS011;51097;51.984;5.650;2023-05-07T00:31:56;17.35;;;13.63;;
44822;SDS011;51097;51.984;5.650;2023-05-07T00:34:21;15.32;;;13.75;;
44822;SDS011;51097;51.984;5.650;2023-05-07T00:36:47;14.32;;;12.95;;
44822;SDS011;51097;51.984;5.650;2023-05-07T00:39:13;14.25;;;12.75;;
44822;SDS011;51097;51.984;5.650;2023-05-07T00:41:39;15.23;;;13.52;;
44822;SDS011;51097;51.984;5.650;2023-05-07T00:44:04;15.93;;;14.20;;
44822;SDS011;51097;51.984;5.650;2023-05-07T00:46:30;15.60;;;13.90;;
44822;SDS011;51097;51.984;5.650;2023-05-07T00:48:57;16.50;;;14.85;;
44822;SDS011;51097;51.984;5.650;2023-05-07T00:51:23;16.30;;;14.60;;
44822;SDS011;51097;51.984;5.650;2023-05-07T00:53:52;21.65;;;16.65;;
44822;SDS011;51097;51.984;5.650;2023-05-07T00:56:18;16.52;;;14.70;;
44822;SDS011;51097;51.984;5.650;2023-05-07T00:58:46;17.95;;;14.60;;
44822;SDS011;51097;51.984;5.650;2023-05-07T01:01:12;17.13;;;15.43;;
44822;SDS011;51097;51.984;5.650;2023-05-07T01:03:38;19.33;;;16.50;;
44822;SDS011;51097;51.984;5.650;2023-05-07T01:06:03;20.23;;;15.82;;
44822;SDS011;51097;51.984;5.650;2023-05-07T01:08:31;17.20;;;15.50;;
44822;SDS011;51097;51.984;5.650;2023-05-07T01:10:57;19.27;;;16.17;;
44822;SDS011;51097;51.984;5.650;2023-05-07T01:13:24;16.95;;;15.27;;
44822;SDS011;51097;51.984;5.650;2023-05-07T01:15:50;19.50;;;17.40;;
44822;SDS011;51097;51.984;5.650;2023-05-07T01:18:15;18.77;;;16.90;;
44822;SDS011;51097;51.984;5.650;2023-05-07T01:20:41;19.88;;;17.10;;
44822;SDS011;51097;51.984;5.650;2023-05-07T01:23:07;19.08;;;17.20;;
44822;SDS011;51097;51.984;5.650;2023-05-07T01:25:35;21.98;;;19.65;;
44822;SDS011;51097;51.984;5.650;2023-05-07T01:28:01;20.45;;;18.45;;
44822;SDS011;51097;51.984;5.650;2023-05-07T01:30:27;19.70;;;17.73;;
44822;SDS011;51097;51.984;5.650;2023-05-07T01:32:57;20.48;;;18.38;;
44822;SDS011;51097;51.984;5.650;2023-05-07T01:35:28;19.85;;;17.75;;
44822;SDS011;51097;51.984;5.650;2023-05-07T01:37:58;20.30;;;18.25;;
44822;SDS011;51097;51.984;5.650;2023-05-07T01:40:25;20.70;;;18.52;;
44822;SDS011;51097;51.984;5.650;2023-05-07T01:42:52;21.17;;;18.90;;
44822;SDS011;51097;51.984;5.650;2023-05-07T01:45:19;20.58;;;18.48;;
44822;SDS011;51097;51.984;5.650;2023-05-07T01:47:45;22.02;;;19.75;;
44822;SDS011;51097;51.984;5.650;2023-05-07T01:50:11;20.15;;;18.17;;
44822;SDS011;51097;51.984;5.650;2023-05-07T01:52:37;21.15;;;19.10;;
44822;SDS011;51097;51.984;5.650;2023-05-07T01:55:04;22.05;;;17.88;;
44822;SDS011;51097;51.984;5.650;2023-05-07T01:57:30;20.38;;;18.33;;
44822;SDS011;51097;51.984;5.650;2023-05-07T01:59:56;19.85;;;17.90;;
44822;SDS011;51097;51.984;5.650;2023-05-07T02:02:21;20.17;;;18.13;;
44822;SDS011;51097;51.984;5.650;2023-05-07T02:04:47;19.90;;;17.83;;
44822;SDS011;51097;51.984;5.650;2023-05-07T02:07:12;18.23;;;16.30;;
44822;SDS011;51097;51.984;5.650;2023-05-07T02:09:38;20.50;;;18.50;;
44822;SDS011;51097;51.984;5.650;2023-05-07T02:12:03;20.75;;;18.70;;
44822;SDS011;51097;51.984;5.650;2023-05-07T02:14:29;19.23;;;17.30;;
44822;SDS011;51097;51.984;5.650;2023-05-07T02:16:55;20.83;;;18.42;;
44822;SDS011;51097;51.984;5.650;2023-05-07T02:19:20;21.13;;;19.10;;
44822;SDS011;51097;51.984;5.650;2023-05-07T02:21:46;20.05;;;18.05;;
44822;SDS011;51097;51.984;5.650;2023-05-07T02:24:12;20.40;;;18.27;;
44822;SDS011;51097;51.984;5.650;2023-05-07T02:26:39;20.58;;;18.40;;
44822;SDS011;51097;51.984;5.650;2023-05-07T02:29:05;21.50;;;19.42;;
44822;SDS011;51097;51.984;5.650;2023-05-07T02:31:31;21.70;;;19.50;;
44822;SDS011;51097;51.984;5.650;2023-05-07T02:33:58;20.48;;;18.42;;
44822;SDS011;51097;51.984;5.650;2023-05-07T02:36:24;21.25;;;18.90;;
44822;SDS011;51097;51.984;5.650;2023-05-07T02:38:50;23.23;;;19.55;;
44822;SDS011;51097;51.984;5.650;2023-05-07T02:41:15;23.88;;;19.13;;
44822;SDS011;51097;51.984;5.650;2023-05-07T02:43:41;21.75;;;19.73;;
44822;SDS011;51097;51.984;5.650;2023-05-07T02:46:07;22.40;;;20.00;;
44822;SDS011;51097;51.984;5.650;2023-05-07T02:48:33;20.13;;;18.02;;
44822;SDS011;51097;51.984;5.650;2023-05-07T02:50:59;21.25;;;19.02;;
44822;SDS011;51097;51.984;5.650;2023-05-07T02:53:26;20.92;;;18.80;;
44822;SDS011;51097;51.984;5.650;2023-05-07T02:55:52;20.73;;;18.73;;
44822;SDS011;51097;51.984;5.650;2023-05-07T02:58:18;20.17;;;18.10;;
44822;SDS011;51097;51.984;5.650;2023-05-07T03:00:44;20.13;;;18.23;;
44822;SDS011;51097;51.984;5.650;2023-05-07T03:03:10;23.88;;;21.30;;
44822;SDS011;51097;51.984;5.650;2023-05-07T03:05:36;22.52;;;20.05;;
44822;SDS011;51097;51.984;5.650;2023-05-07T03:08:02;22.52;;;20.38;;
44822;SDS011;51097;51.984;5.650;2023-05-07T03:10:28;22.52;;;19.83;;
44822;SDS011;51097;51.984;5.650;2023-05-07T03:12:54;22.35;;;20.00;;
44822;SDS011;51097;51.984;5.650;2023-05-07T03:15:20;24.40;;;19.85;;
44822;SDS011;51097;51.984;5.650;2023-05-07T03:17:46;21.42;;;19.23;;
44822;SDS011;51097;51.984;5.650;2023-05-07T03:20:12;22.23;;;20.00;;
44822;SDS011;51097;51.984;5.650;2023-05-07T03:22:38;21.75;;;19.55;;
44822;SDS011;51097;51.984;5.650;2023-05-07T03:25:04;21.58;;;19.40;;
44822;SDS011;51097;51.984;5.650;2023-05-07T03:27:30;21.02;;;18.95;;
44822;SDS011;51097;51.984;5.650;2023-05-07T03:29:56;22.85;;;20.35;;
44822;SDS011;51097;51.984;5.650;2023-05-07T03:32:21;21.52;;;18.92;;
44822;SDS011;51097;51.984;5.650;2023-05-07T03:34:47;22.08;;;19.88;;
44822;SDS011;51097;51.984;5.650;2023-05-07T03:37:12;21.15;;;19.02;;
44822;SDS011;51097;51.984;5.650;2023-05-07T03:39:38;23.02;;;20.58;;
44822;SDS011;51097;51.984;5.650;2023-05-07T03:42:03;23.63;;;20.55;;
44822;SDS011;51097;51.984;5.650;2023-05-07T03:44:29;22.10;;;19.80;;
44822;SDS011;51097;51.984;5.650;2023-05-07T03:46:54;19.92;;;17.92;;
44822;SDS011;51097;51.984;5.650;2023-05-07T03:49:20;24.27;;;20.20;;
44822;SDS011;51097;51.984;5.650;2023-05-07T03:51:46;22.08;;;20.00;;
44822;SDS011;51097;51.984;5.650;2023-05-07T03:54:11;22.33;;;19.98;;
44822;SDS011;51097;51.984;5.650;2023-05-07T03:56:37;21.92;;;19.58;;
44822;SDS011;51097;51.984;5.650;2023-05-07T03:59:03;22.88;;;20.58;;
44822;SDS011;51097;51.984;5.650;2023-05-07T04:01:28;25.27;;;22.73;;
44822;SDS011;51097;51.984;5.650;2023-05-07T04:03:54;24.35;;;21.75;;
44822;SDS011;51097;51.984;5.650;2023-05-07T04:06:20;23.98;;;21.52;;
44822;SDS011;51097;51.984;5.650;2023-05-07T04:08:45;24.38;;;21.75;;
44822;SDS011;51097;51.984;5.650;2023-05-07T04:11:11;25.60;;;22.17;;
44822;SDS011;51097;51.984;5.650;2023-05-07T04:13:37;23.92;;;21.42;;
44822;SDS011;51097;51.984;5.650;2023-05-07T04:16:03;25.05;;;22.30;;
44822;SDS011;51097;51.984;5.650;2023-05-07T04:18:29;24.13;;;21.63;;
44822;SDS011;51097;51.984;5.650;2023-05-07T04:20:55;25.08;;;22.48;;
44822;SDS011;51097;51.984;5.650;2023-05-07T04:23:21;23.92;;;21.40;;
44822;SDS011;51097;51.984;5.650;2023-05-07T04:25:46;26.73;;;23.85;;
44822;SDS011;51097;51.984;5.650;2023-05-07T04:28:12;24.40;;;21.85;;
44822;SDS011;51097;51.984;5.650;2023-05-07T04:30:38;27.13;;;24.35;;
44822;SDS011;51097;51.984;5.650;2023-05-07T04:33:03;24.63;;;22.05;;
44822;SDS011;51097;51.984;5.650;2023-05-07T04:35:29;24.23;;;21.63;;
44822;SDS011;51097;51.984;5.650;2023-05-07T04:37:55;24.60;;;22.13;;
44822;SDS011;51097;51.984;5.650;2023-05-07T04:40:20;24.75;;;22.25;;
44822;SDS011;51097;51.984;5.650;2023-05-07T04:42:46;25.27;;;22.58;;
44822;SDS011;51097;51.984;5.650;2023-05-07T04:45:11;24.27;;;21.90;;
44822;SDS011;51097;51.984;5.650;2023-05-07T04:47:37;24.30;;;21.70;;
44822;SDS011;51097;51.984;5.650;2023-05-07T04:50:03;23.00;;;20.67;;
44822;SDS011;51097;51.984;5.650;2023-05-07T04:52:30;25.75;;;22.42;;
44822;SDS011;51097;51.984;5.650;2023-05-07T04:54:56;23.20;;;20.75;;
44822;SDS011;51097;51.984;5.650;2023-05-07T04:57:24;22.70;;;20.38;;
44822;SDS011;51097;51.984;5.650;2023-05-07T04:59:49;23.52;;;21.08;;
44822;SDS011;51097;51.984;5.650;2023-05-07T05:02:15;24.20;;;21.65;;
44822;SDS011;51097;51.984;5.650;2023-05-07T05:04:41;23.02;;;20.63;;
44822;SDS011;51097;51.984;5.650;2023-05-07T05:07:06;23.55;;;21.13;;
44822;SDS011;51097;51.984;5.650;2023-05-07T05:09:32;22.75;;;20.30;;
44822;SDS011;51097;51.984;5.650;2023-05-07T05:11:57;26.58;;;21.05;;
44822;SDS011;51097;51.984;5.650;2023-05-07T05:14:24;22.90;;;20.30;;
44822;SDS011;51097;51.984;5.650;2023-05-07T05:16:50;23.75;;;21.23;;
44822;SDS011;51097;51.984;5.650;2023-05-07T05:19:15;23.08;;;20.65;;
44822;SDS011;51097;51.984;5.650;2023-05-07T05:21:41;23.48;;;21.17;;
44822;SDS011;51097;51.984;5.650;2023-05-07T05:24:06;23.58;;;21.05;;
44822;SDS011;51097;51.984;5.650;2023-05-07T05:26:32;22.33;;;18.55;;
44822;SDS011;51097;51.984;5.650;2023-05-07T05:28:58;23.85;;;21.35;;
44822;SDS011;51097;51.984;5.650;2023-05-07T05:31:24;23.00;;;20.60;;
44822;SDS011;51097;51.984;5.650;2023-05-07T05:33:49;24.83;;;21.15;;
44822;SDS011;51097;51.984;5.650;2023-05-07T05:36:15;24.52;;;21.70;;
44822;SDS011;51097;51.984;5.650;2023-05-07T05:38:41;25.02;;;22.52;;
44822;SDS011;51097;51.984;5.650;2023-05-07T05:41:06;24.92;;;21.42;;
44822;SDS011;51097;51.984;5.650;2023-05-07T05:43:32;23.70;;;21.30;;
44822;SDS011;51097;51.984;5.650;2023-05-07T05:45:57;22.63;;;20.40;;
44822;SDS011;51097;51.984;5.650;2023-05-07T05:48:23;23.92;;;20.35;;
44822;SDS011;51097;51.984;5.650;2023-05-07T05:50:49;25.50;;;22.73;;
44822;SDS011;51097;51.984;5.650;2023-05-07T05:53:14;24.30;;;21.70;;
44822;SDS011;51097;51.984;5.650;2023-05-07T05:55:41;24.15;;;21.65;;
44822;SDS011;51097;51.984;5.650;2023-05-07T05:58:06;23.92;;;21.40;;
44822;SDS011;51097;51.984;5.650;2023-05-07T06:00:32;24.27;;;21.13;;
44822;SDS011;51097;51.984;5.650;2023-05-07T06:02:58;23.67;;;21.25;;
44822;SDS011;51097;51.984;5.650;2023-05-07T06:05:23;24.10;;;21.50;;
44822;SDS011;51097;51.984;5.650;2023-05-07T06:07:49;22.70;;;20.58;;
44822;SDS011;51097;51.984;5.650;2023-05-07T06:10:15;26.15;;;21.92;;
44822;SDS011;51097;51.984;5.650;2023-05-07T06:12:40;24.83;;;21.20;;
44822;SDS011;51097;51.984;5.650;2023-05-07T06:15:06;24.55;;;21.85;;
44822;SDS011;51097;51.984;5.650;2023-05-07T06:17:32;25.13;;;22.40;;
44822;SDS011;51097;51.984;5.650;2023-05-07T06:19:57;24.73;;;21.85;;
44822;SDS011;51097;51.984;5.650;2023-05-07T06:22:23;24.95;;;21.85;;
44822;SDS011;51097;51.984;5.650;2023-05-07T06:24:56;23.85;;;21.33;;
44822;SDS011;51097;51.984;5.650;2023-05-07T06:27:21;23.23;;;20.95;;
44822;SDS011;51097;51.984;5.650;2023-05-07T06:29:47;23.63;;;21.08;;
44822;SDS011;51097;51.984;5.650;2023-05-07T06:32:13;22.67;;;20.48;;
44822;SDS011;51097;51.984;5.650;2023-05-07T06:34:40;23.73;;;21.42;;
44822;SDS011;51097;51.984;5.650;2023-05-07T06:37:06;24.15;;;21.38;;
44822;SDS011;51097;51.984;5.650;2023-05-07T06:39:31;25.42;;;21.50;;
44822;SDS011;51097;51.984;5.650;2023-05-07T06:41:58;24.45;;;21.85;;
44822;SDS011;51097;51.984;5.650;2023-05-07T06:44:24;22.27;;;20.00;;
44822;SDS011;51097;51.984;5.650;2023-05-07T06:46:50;19.90;;;17.90;;
44822;SDS011;51097;51.984;5.650;2023-05-07T06:49:23;24.40;;;21.98;;
44822;SDS011;51097;51.984;5.650;2023-05-07T06:51:49;21.60;;;19.60;;
44822;SDS011;51097;51.984;5.650;2023-05-07T06:54:14;24.00;;;20.50;;
44822;SDS011;51097;51.984;5.650;2023-05-07T06:56:40;21.63;;;19.73;;
44822;SDS011;51097;51.984;5.650;2023-05-07T06:59:08;22.80;;;20.52;;
44822;SDS011;51097;51.984;5.650;2023-05-07T07:01:33;23.35;;;21.00;;
44822;SDS011;51097;51.984;5.650;2023-05-07T07:03:59;21.65;;;19.35;;
44822;SDS011;51097;51.984;5.650;2023-05-07T07:06:25;22.70;;;20.42;;
44822;SDS011;51097;51.984;5.650;2023-05-07T07:08:51;21.45;;;19.25;;
44822;SDS011;51097;51.984;5.650;2023-05-07T07:11:16;23.15;;;20.60;;
44822;SDS011;51097;51.984;5.650;2023-05-07T07:13:42;20.95;;;18.75;;
44822;SDS011;51097;51.984;5.650;2023-05-07T07:26:49;23.00;;;20.85;;
44822;SDS011;51097;51.984;5.650;2023-05-07T07:33:21;20.85;;;18.83;;
44822;SDS011;51097;51.984;5.650;2023-05-07T07:36:04;21.60;;;19.55;;
44822;SDS011;51097;51.984;5.650;2023-05-07T07:41:42;20.20;;;18.30;;
44822;SDS011;51097;51.984;5.650;2023-05-07T07:44:17;22.95;;;19.83;;
44822;SDS011;51097;51.984;5.650;2023-05-07T07:46:50;21.58;;;19.48;;
44822;SDS011;51097;51.984;5.650;2023-05-07T07:49:33;20.75;;;18.73;;
44822;SDS011;51097;51.984;5.650;2023-05-07T07:52:18;19.60;;;17.83;;
44822;SDS011;51097;51.984;5.650;2023-05-07T07:55:11;20.77;;;18.63;;
44822;SDS011;51097;51.984;5.650;2023-05-07T07:57:46;21.73;;;19.52;;
44822;SDS011;51097;51.984;5.650;2023-05-07T08:00:31;21.73;;;19.52;;
44822;SDS011;51097;51.984;5.650;2023-05-07T08:03:05;21.42;;;19.15;;
44822;SDS011;51097;51.984;5.650;2023-05-07T08:08:57;18.70;;;16.80;;
44822;SDS011;51097;51.984;5.650;2023-05-07T08:14:31;20.65;;;18.70;;
44822;SDS011;51097;51.984;5.650;2023-05-07T08:17:05;19.30;;;17.38;;
44822;SDS011;51097;51.984;5.650;2023-05-07T08:36:06;20.85;;;18.95;;
44822;SDS011;51097;51.984;5.650;2023-05-07T09:40:01;14.80;;;13.30;;
44822;SDS011;51097;51.984;5.650;2023-05-07T09:42:28;16.45;;;14.38;;
44822;SDS011;51097;51.984;5.650;2023-05-07T09:46:00;14.90;;;11.52;;
44822;SDS011;51097;51.984;5.650;2023-05-07T09:48:30;14.63;;;12.70;;
44822;SDS011;51097;51.984;5.650;2023-05-07T09:51:03;15.45;;;12.07;;
44822;SDS011;51097;51.984;5.650;2023-05-07T09:54:18;11.98;;;10.65;;
44822;SDS011;51097;51.984;5.650;2023-05-07T10:00:14;13.05;;;11.02;;
44822;SDS011;51097;51.984;5.650;2023-05-07T10:06:47;11.82;;;9.90;;
44822;SDS011;51097;51.984;5.650;2023-05-07T10:09:18;12.65;;;10.43;;
44822;SDS011;51097;51.984;5.650;2023-05-07T10:11:56;10.85;;;9.50;;
44822;SDS011;51097;51.984;5.650;2023-05-07T10:14:32;10.88;;;9.25;;
44822;SDS011;51097;51.984;5.650;2023-05-07T10:16:58;10.95;;;9.65;;
44822;SDS011;51097;51.984;5.650;2023-05-07T10:19:25;13.70;;;10.80;;
44822;SDS011;51097;51.984;5.650;2023-05-07T10:21:54;11.20;;;9.85;;
44822;SDS011;51097;51.984;5.650;2023-05-07T10:24:23;13.38;;;10.48;;
44822;SDS011;51097;51.984;5.650;2023-05-07T10:26:51;10.90;;;9.80;;
44822;SDS011;51097;51.984;5.650;2023-05-07T10:29:20;12.02;;;9.48;;
44822;SDS011;51097;51.984;5.650;2023-05-07T10:31:58;13.65;;;11.27;;
44822;SDS011;51097;51.984;5.650;2023-05-07T10:34:43;11.18;;;9.75;;
44822;SDS011;51097;51.984;5.650;2023-05-07T10:37:11;10.70;;;9.48;;
44822;SDS011;51097;51.984;5.650;2023-05-07T10:39:37;10.57;;;9.52;;
44822;SDS011;51097;51.984;5.650;2023-05-07T10:42:09;12.07;;;8.65;;
44822;SDS011;51097;51.984;5.650;2023-05-07T10:44:36;11.00;;;9.90;;
44822;SDS011;51097;51.984;5.650;2023-05-07T10:47:12;11.52;;;9.18;;
44822;SDS011;51097;51.984;5.650;2023-05-07T10:54:36;13.18;;;11.02;;
44822;SDS011;51097;51.984;5.650;2023-05-07T10:57:32;11.05;;;9.60;;
44822;SDS011;51097;51.984;5.650;2023-05-07T11:05:26;10.50;;;9.50;;
44822;SDS011;51097;51.984;5.650;2023-05-07T11:49:55;11.05;;;10.05;;
44822;SDS011;51097;51.984;5.650;2023-05-07T12:37:33;8.05;;;6.50;;
44822;SDS011;51097;51.984;5.650;2023-05-07T12:40:08;10.93;;;7.85;;
44822;SDS011;51097;51.984;5.650;2023-05-07T12:42:35;9.20;;;8.35;;
44822;SDS011;51097;51.984;5.650;2023-05-07T12:45:10;9.73;;;8.82;;
44822;SDS011;51097;51.984;5.650;2023-05-07T12:47:36;8.82;;;8.02;;
44822;SDS011;51097;51.984;5.650;2023-05-07T12:50:04;6.72;;;6.13;;
44822;SDS011;51097;51.984;5.650;2023-05-07T12:52:31;9.63;;;8.73;;
44822;SDS011;51097;51.984;5.650;2023-05-07T12:54:57;10.32;;;9.15;;
44822;SDS011;51097;51.984;5.650;2023-05-07T12:57:30;10.05;;;9.20;;
44822;SDS011;51097;51.984;5.650;2023-05-07T13:00:02;10.77;;;9.75;;
44822;SDS011;51097;51.984;5.650;2023-05-07T13:02:34;10.13;;;9.25;;
44822;SDS011;51097;51.984;5.650;2023-05-07T13:05:03;11.43;;;9.73;;
44822;SDS011;51097;51.984;5.650;2023-05-07T13:07:29;12.43;;;11.23;;
44822;SDS011;51097;51.984;5.650;2023-05-07T13:09:54;12.65;;;9.82;;
44822;SDS011;51097;51.984;5.650;2023-05-07T13:12:20;9.77;;;8.93;;
44822;SDS011;51097;51.984;5.650;2023-05-07T13:14:46;11.32;;;10.13;;
44822;SDS011;51097;51.984;5.650;2023-05-07T13:17:11;9.45;;;8.55;;
44822;SDS011;51097;51.984;5.650;2023-05-07T13:19:37;10.38;;;8.90;;
44822;SDS011;51097;51.984;5.650;2023-05-07T13:22:03;8.30;;;7.13;;
44822;SDS011;51097;51.984;5.650;2023-05-07T13:24:28;9.75;;;8.57;;
44822;SDS011;51097;51.984;5.650;2023-05-07T13:26:54;7.55;;;6.85;;
44822;SDS011;51097;51.984;5.650;2023-05-07T13:29:20;8.55;;;7.75;;
44822;SDS011;51097;51.984;5.650;2023-05-07T13:31:50;6.30;;;4.53;;
44822;SDS011;51097;51.984;5.650;2023-05-07T13:34:15;8.05;;;5.40;;
44822;SDS011;51097;51.984;5.650;2023-05-07T13:36:41;8.68;;;7.82;;
44822;SDS011;51097;51.984;5.650;2023-05-07T13:39:06;10.95;;;9.88;;
44822;SDS011;51097;51.984;5.650;2023-05-07T13:41:32;14.02;;;9.48;;
44822;SDS011;51097;51.984;5.650;2023-05-07T13:43:58;7.65;;;6.90;;
44822;SDS011;51097;51.984;5.650;2023-05-07T13:46:23;8.30;;;6.22;;
44822;SDS011;51097;51.984;5.650;2023-05-07T13:48:49;7.90;;;6.25;;
44822;SDS011;51097;51.984;5.650;2023-05-07T13:51:16;8.32;;;7.25;;
44822;SDS011;51097;51.984;5.650;2023-05-07T13:53:41;6.88;;;5.32;;
44822;SDS011;51097;51.984;5.650;2023-05-07T13:56:07;6.65;;;6.05;;
44822;SDS011;51097;51.984;5.650;2023-05-07T13:58:33;6.93;;;5.47;;
44822;SDS011;51097;51.984;5.650;2023-05-07T14:00:58;7.72;;;6.95;;
44822;SDS011;51097;51.984;5.650;2023-05-07T14:03:24;6.38;;;5.15;;
44822;SDS011;51097;51.984;5.650;2023-05-07T14:05:50;6.88;;;6.20;;
44822;SDS011;51097;51.984;5.650;2023-05-07T14:08:15;6.72;;;6.05;;
44822;SDS011;51097;51.984;5.650;2023-05-07T14:10:43;7.40;;;6.65;;
44822;SDS011;51097;51.984;5.650;2023-05-07T14:13:09;8.40;;;7.60;;
44822;SDS011;51097;51.984;5.650;2023-05-07T14:15:35;7.88;;;7.10;;
44822;SDS011;51097;51.984;5.650;2023-05-07T14:18:01;9.48;;;8.57;;
44822;SDS011;51097;51.984;5.650;2023-05-07T14:20:27;9.55;;;8.65;;
44822;SDS011;51097;51.984;5.650;2023-05-07T14:22:53;8.77;;;7.97;;
44822;SDS011;51097;51.984;5.650;2023-05-07T14:25:18;8.65;;;7.93;;
44822;SDS011;51097;51.984;5.650;2023-05-07T14:27:44;10.73;;;9.73;;
44822;SDS011;51097;51.984;5.650;2023-05-07T14:30:09;10.45;;;9.38;;
44822;SDS011;51097;51.984;5.650;2023-05-07T14:32:35;10.90;;;9.90;;
44822;SDS011;51097;51.984;5.650;2023-05-07T14:35:01;10.20;;;9.30;;
44822;SDS011;51097;51.984;5.650;2023-05-07T14:37:26;11.20;;;9.98;;
44822;SDS011;51097;51.984;5.650;2023-05-07T14:39:52;9.98;;;9.07;;
44822;SDS011;51097;51.984;5.650;2023-05-07T14:42:17;11.25;;;9.65;;
44822;SDS011;51097;51.984;5.650;2023-05-07T14:44:43;11.32;;;10.30;;
44822;SDS011;51097;51.984;5.650;2023-05-07T14:47:10;11.15;;;10.05;;
44822;SDS011;51097;51.984;5.650;2023-05-07T14:49:35;10.57;;;9.45;;
44822;SDS011;51097;51.984;5.650;2023-05-07T14:52:01;11.25;;;10.05;;
44822;SDS011;51097;51.984;5.650;2023-05-07T14:54:27;10.95;;;9.52;;
44822;SDS011;51097;51.984;5.650;2023-05-07T14:56:52;10.27;;;9.20;;
44822;SDS011;51097;51.984;5.650;2023-05-07T14:59:19;10.60;;;9.68;;
44822;SDS011;51097;51.984;5.650;2023-05-07T15:01:46;9.20;;;8.23;;
44822;SDS011;51097;51.984;5.650;2023-05-07T15:04:12;11.85;;;10.75;;
44822;SDS011;51097;51.984;5.650;2023-05-07T15:06:38;10.57;;;9.55;;
44822;SDS011;51097;51.984;5.650;2023-05-07T15:09:03;11.55;;;10.45;;
44822;SDS011;51097;51.984;5.650;2023-05-07T15:11:29;11.05;;;10.00;;
44822;SDS011;51097;51.984;5.650;2023-05-07T15:13:55;9.93;;;9.02;;
44822;SDS011;51097;51.984;5.650;2023-05-07T15:16:20;10.68;;;9.63;;
44822;SDS011;51097;51.984;5.650;2023-05-07T15:18:46;9.25;;;6.78;;
44822;SDS011;51097;51.984;5.650;2023-05-07T15:21:12;7.00;;;4.60;;
44822;SDS011;51097;51.984;5.650;2023-05-07T15:23:38;4.97;;;4.47;;
44822;SDS011;51097;51.984;5.650;2023-05-07T15:26:04;3.40;;;2.92;;
44822;SDS011;51097;51.984;5.650;2023-05-07T15:28:30;3.20;;;1.90;;
44822;SDS011;51097;51.984;5.650;2023-05-07T15:30:56;1.83;;;1.35;;
44822;SDS011;51097;51.984;5.650;2023-05-07T15:33:22;1.85;;;1.35;;
44822;SDS011;51097;51.984;5.650;2023-05-07T15:35:48;2.13;;;1.52;;
44822;SDS011;51097;51.984;5.650;2023-05-07T15:38:14;3.90;;;2.35;;
44822;SDS011;51097;51.984;5.650;2023-05-07T15:40:40;1.70;;;1.60;;
44822;SDS011;51097;51.984;5.650;2023-05-07T15:43:07;2.00;;;1.80;;
44822;SDS011;51097;51.984;5.650;2023-05-07T15:45:38;2.63;;;1.73;;
44822;SDS011;51097;51.984;5.650;2023-05-07T15:48:05;2.60;;;2.22;;
44822;SDS011;51097;51.984;5.650;2023-05-07T15:50:31;3.80;;;3.40;;
44822;SDS011;51097;51.984;5.650;2023-05-07T15:52:57;3.45;;;2.53;;
44822;SDS011;51097;51.984;5.650;2023-05-07T15:55:22;4.93;;;4.20;;
44822;SDS011;51097;51.984;5.650;2023-05-07T15:57:48;3.25;;;2.63;;
44822;SDS011;51097;51.984;5.650;2023-05-07T16:00:14;4.55;;;2.58;;
44822;SDS011;51097;51.984;5.650;2023-05-07T16:02:41;2.47;;;1.83;;
44822;SDS011;51097;51.984;5.650;2023-05-07T16:05:07;2.67;;;2.03;;
44822;SDS011;51097;51.984;5.650;2023-05-07T16:07:34;4.38;;;1.92;;
44822;SDS011;51097;51.984;5.650;2023-05-07T16:10:00;3.05;;;1.95;;
44822;SDS011;51097;51.984;5.650;2023-05-07T16:12:26;8.25;;;2.35;;
44822;SDS011;51097;51.984;5.650;2023-05-07T16:14:52;2.25;;;1.55;;
44822;SDS011;51097;51.984;5.650;2023-05-07T16:17:17;2.42;;;1.20;;
44822;SDS011;51097;51.984;5.650;2023-05-07T16:19:43;2.78;;;1.65;;
44822;SDS011;51097;51.984;5.650;2023-05-07T16:22:08;3.38;;;1.30;;
44822;SDS011;51097;51.984;5.650;2023-05-07T16:24:34;3.92;;;1.30;;
44822;SDS011;51097;51.984;5.650;2023-05-07T16:26:59;2.67;;;1.70;;
44822;SDS011;51097;51.984;5.650;2023-05-07T16:29:25;5.00;;;1.50;;
44822;SDS011;51097;51.984;5.650;2023-05-07T16:31:52;3.58;;;1.60;;
44822;SDS011;51097;51.984;5.650;2023-05-07T16:34:18;4.72;;;1.77;;
44822;SDS011;51097;51.984;5.650;2023-05-07T16:36:43;5.32;;;2.35;;
44822;SDS011;51097;51.984;5.650;2023-05-07T16:39:09;5.85;;;2.65;;
44822;SDS011;51097;51.984;5.650;2023-05-07T16:41:35;2.92;;;2.38;;
44822;SDS011;51097;51.984;5.650;2023-05-07T16:44:00;2.42;;;2.15;;
44822;SDS011;51097;51.984;5.650;2023-05-07T16:46:26;4.82;;;2.00;;
44822;SDS011;51097;51.984;5.650;2023-05-07T16:48:52;7.30;;;2.58;;
44822;SDS011;51097;51.984;5.650;2023-05-07T16:51:17;5.60;;;2.30;;
44822;SDS011;51097;51.984;5.650;2023-05-07T16:53:43;4.93;;;2.53;;
44822;SDS011;51097;51.984;5.650;2023-05-07T16:56:09;3.83;;;2.72;;
44822;SDS011;51097;51.984;5.650;2023-05-07T16:58:34;3.83;;;2.80;;
44822;SDS011;51097;51.984;5.650;2023-05-07T17:01:00;7.00;;;3.63;;
44822;SDS011;51097;51.984;5.650;2023-05-07T17:03:27;3.88;;;3.47;;
44822;SDS011;51097;51.984;5.650;2023-05-07T17:05:53;5.45;;;4.50;;
44822;SDS011;51097;51.984;5.650;2023-05-07T17:08:19;7.05;;;4.85;;
44822;SDS011;51097;51.984;5.650;2023-05-07T17:10:44;6.53;;;5.63;;
44822;SDS011;51097;51.984;5.650;2023-05-07T17:13:11;6.38;;;4.53;;
44822;SDS011;51097;51.984;5.650;2023-05-07T17:15:36;7.25;;;5.25;;
44822;SDS011;51097;51.984;5.650;2023-05-07T17:18:02;5.20;;;4.70;;
44822;SDS011;51097;51.984;5.650;2023-05-07T17:20:28;5.88;;;5.28;;
44822;SDS011;51097;51.984;5.650;2023-05-07T17:22:53;5.68;;;5.18;;
44822;SDS011;51097;51.984;5.650;2023-05-07T17:25:19;4.93;;;4.22;;
44822;SDS011;51097;51.984;5.650;2023-05-07T17:27:47;4.40;;;4.00;;
44822;SDS011;51097;51.984;5.650;2023-05-07T17:30:13;5.25;;;4.68;;
44822;SDS011;51097;51.984;5.650;2023-05-07T17:32:39;4.32;;;4.03;;
44822;SDS011;51097;51.984;5.650;2023-05-07T17:35:05;5.95;;;4.30;;
44822;SDS011;51097;51.984;5.650;2023-05-07T17:37:31;7.10;;;5.10;;
44822;SDS011;51097;51.984;5.650;2023-05-07T17:39:57;8.50;;;5.03;;
44822;SDS011;51097;51.984;5.650;2023-05-07T17:42:22;5.38;;;4.75;;
44822;SDS011;51097;51.984;5.650;2023-05-07T17:44:48;5.47;;;4.88;;
44822;SDS011;51097;51.984;5.650;2023-05-07T17:47:14;5.47;;;4.82;;
44822;SDS011;51097;51.984;5.650;2023-05-07T17:49:39;5.15;;;4.70;;
44822;SDS011;51097;51.984;5.650;2023-05-07T17:52:06;6.50;;;5.35;;
44822;SDS011;51097;51.984;5.650;2023-05-07T17:54:32;6.82;;;5.50;;
44822;SDS011;51097;51.984;5.650;2023-05-07T17:56:58;6.82;;;5.82;;